sensor_id;sensor_type;location;lat;lon;timestamp;P1;durP1;ratioP1;P2;durP2;ratioP2
29214;SDS011;16252;49.816;7.964;2022-10-16T00:01:41;3.35;;;1.80;;
29214;SDS011;16252;49.816;7.964;2022-10-16T00:04:06;1.70;;;1.40;;
29214;SDS011;16252;49.816;7.964;2022-10-16T00:06:32;3.15;;;1.83;;
29214;SDS011;16252;49.816;7.964;2022-10-16T00:08:58;2.20;;;1.52;;
29214;SDS011;16252;49.816;7.964;2022-10-16T00:11:24;1.85;;;1.25;;
29214;SDS011;16252;49.816;7.964;2022-10-16T00:13:55;1.40;;;0.90;;
29214;SDS011;16252;49.816;7.964;2022-10-16T00:16:22;2.55;;;1.20;;
29214;SDS011;16252;49.816;7.964;2022-10-16T00:18:48;1.40;;;1.13;;
29214;SDS011;16252;49.816;7.964;2022-10-16T00:21:14;1.45;;;1.17;;
29214;SDS011;16252;49.816;7.964;2022-10-16T00:23:45;3.00;;;1.50;;
29214;SDS011;16252;49.816;7.964;2022-10-16T00:26:11;2.90;;;1.00;;
29214;SDS011;16252;49.816;7.964;2022-10-16T00:28:39;3.20;;;1.23;;
29214;SDS011;16252;49.816;7.964;2022-10-16T00:31:06;1.02;;;0.80;;
29214;SDS011;16252;49.816;7.964;2022-10-16T00:33:34;2.78;;;1.42;;
29214;SDS011;16252;49.816;7.964;2022-10-16T00:36:00;3.53;;;1.65;;
29214;SDS011;16252;49.816;7.964;2022-10-16T00:38:27;2.80;;;2.20;;
29214;SDS011;16252;49.816;7.964;2022-10-16T00:40:53;3.60;;;2.33;;
29214;SDS011;16252;49.816;7.964;2022-10-16T00:48:43;2.10;;;1.75;;
29214;SDS011;16252;49.816;7.964;2022-10-16T00:51:14;2.40;;;1.98;;
29214;SDS011;16252;49.816;7.964;2022-10-16T00:53:40;4.05;;;2.38;;
29214;SDS011;16252;49.816;7.964;2022-10-16T00:56:05;1.85;;;1.40;;
29214;SDS011;16252;49.816;7.964;2022-10-16T00:58:31;2.47;;;1.35;;
29214;SDS011;16252;49.816;7.964;2022-10-16T01:00:56;2.15;;;1.27;;
29214;SDS011;16252;49.816;7.964;2022-10-16T01:03:32;1.38;;;1.10;;
29214;SDS011;16252;49.816;7.964;2022-10-16T01:09:17;1.08;;;0.93;;
29214;SDS011;16252;49.816;7.964;2022-10-16T01:11:56;1.63;;;0.93;;
29214;SDS011;16252;49.816;7.964;2022-10-16T01:20:26;1.10;;;0.80;;
29214;SDS011;16252;49.816;7.964;2022-10-16T01:25:55;1.45;;;1.00;;
29214;SDS011;16252;49.816;7.964;2022-10-16T01:28:32;1.13;;;0.90;;
29214;SDS011;16252;49.816;7.964;2022-10-16T01:31:03;2.58;;;1.00;;
29214;SDS011;16252;49.816;7.964;2022-10-16T01:33:30;1.27;;;1.13;;
29214;SDS011;16252;49.816;7.964;2022-10-16T01:36:05;0.90;;;0.90;;
29214;SDS011;16252;49.816;7.964;2022-10-16T01:38:36;1.77;;;1.17;;
29214;SDS011;16252;49.816;7.964;2022-10-16T01:41:06;1.75;;;1.20;;
29214;SDS011;16252;49.816;7.964;2022-10-16T01:44:06;3.95;;;1.65;;
29214;SDS011;16252;49.816;7.964;2022-10-16T01:46:36;2.17;;;1.30;;
29214;SDS011;16252;49.816;7.964;2022-10-16T01:49:04;1.00;;;0.90;;
29214;SDS011;16252;49.816;7.964;2022-10-16T01:51:34;1.30;;;1.02;;
29214;SDS011;16252;49.816;7.964;2022-10-16T01:54:02;2.92;;;1.00;;
29214;SDS011;16252;49.816;7.964;2022-10-16T01:56:31;1.73;;;0.90;;
29214;SDS011;16252;49.816;7.964;2022-10-16T01:59:03;1.50;;;0.70;;
29214;SDS011;16252;49.816;7.964;2022-10-16T02:01:33;0.82;;;0.73;;
29214;SDS011;16252;49.816;7.964;2022-10-16T02:07:02;0.60;;;0.57;;
29214;SDS011;16252;49.816;7.964;2022-10-16T02:09:29;0.55;;;0.52;;
29214;SDS011;16252;49.816;7.964;2022-10-16T02:11:58;0.93;;;0.70;;
29214;SDS011;16252;49.816;7.964;2022-10-16T02:14:27;1.20;;;0.60;;
29214;SDS011;16252;49.816;7.964;2022-10-16T02:16:53;0.60;;;0.60;;
29214;SDS011;16252;49.816;7.964;2022-10-16T02:19:39;0.77;;;0.60;;
29214;SDS011;16252;49.816;7.964;2022-10-16T02:22:22;1.27;;;0.77;;
29214;SDS011;16252;49.816;7.964;2022-10-16T02:30:13;0.75;;;0.65;;
29214;SDS011;16252;49.816;7.964;2022-10-16T02:32:44;0.65;;;0.60;;
29214;SDS011;16252;49.816;7.964;2022-10-16T02:35:13;1.67;;;0.80;;
29214;SDS011;16252;49.816;7.964;2022-10-16T02:37:40;0.70;;;0.70;;
29214;SDS011;16252;49.816;7.964;2022-10-16T02:40:06;1.35;;;0.52;;
29214;SDS011;16252;49.816;7.964;2022-10-16T02:42:33;0.60;;;0.60;;
29214;SDS011;16252;49.816;7.964;2022-10-16T02:45:00;0.60;;;0.55;;
29214;SDS011;16252;49.816;7.964;2022-10-16T02:47:26;0.50;;;0.50;;
29214;SDS011;16252;49.816;7.964;2022-10-16T02:49:51;1.02;;;0.60;;
29214;SDS011;16252;49.816;7.964;2022-10-16T02:52:16;0.43;;;0.40;;
29214;SDS011;16252;49.816;7.964;2022-10-16T02:54:42;0.70;;;0.47;;
29214;SDS011;16252;49.816;7.964;2022-10-16T02:57:07;2.22;;;0.70;;
29214;SDS011;16252;49.816;7.964;2022-10-16T02:59:32;3.15;;;0.60;;
29214;SDS011;16252;49.816;7.964;2022-10-16T03:01:58;1.77;;;0.80;;
29214;SDS011;16252;49.816;7.964;2022-10-16T03:04:23;0.63;;;0.50;;
29214;SDS011;16252;49.816;7.964;2022-10-16T03:06:49;0.47;;;0.45;;
29214;SDS011;16252;49.816;7.964;2022-10-16T03:09:14;0.50;;;0.50;;
29214;SDS011;16252;49.816;7.964;2022-10-16T03:11:39;0.50;;;0.50;;
29214;SDS011;16252;49.816;7.964;2022-10-16T03:14:05;0.30;;;0.30;;
29214;SDS011;16252;49.816;7.964;2022-10-16T03:16:30;1.10;;;0.50;;
29214;SDS011;16252;49.816;7.964;2022-10-16T03:18:55;1.15;;;0.70;;
29214;SDS011;16252;49.816;7.964;2022-10-16T03:21:21;2.33;;;0.55;;
29214;SDS011;16252;49.816;7.964;2022-10-16T03:23:46;0.60;;;0.52;;
29214;SDS011;16252;49.816;7.964;2022-10-16T03:26:12;2.10;;;0.40;;
29214;SDS011;16252;49.816;7.964;2022-10-16T03:28:37;0.50;;;0.50;;
29214;SDS011;16252;49.816;7.964;2022-10-16T03:31:02;1.92;;;0.57;;
29214;SDS011;16252;49.816;7.964;2022-10-16T03:33:28;1.45;;;0.80;;
29214;SDS011;16252;49.816;7.964;2022-10-16T03:35:53;1.17;;;0.80;;
29214;SDS011;16252;49.816;7.964;2022-10-16T03:38:20;2.13;;;0.77;;
29214;SDS011;16252;49.816;7.964;2022-10-16T03:40:46;1.27;;;0.93;;
29214;SDS011;16252;49.816;7.964;2022-10-16T03:43:11;1.10;;;0.75;;
29214;SDS011;16252;49.816;7.964;2022-10-16T03:45:38;0.80;;;0.68;;
29214;SDS011;16252;49.816;7.964;2022-10-16T03:48:03;2.53;;;0.68;;
29214;SDS011;16252;49.816;7.964;2022-10-16T03:50:29;1.25;;;0.95;;
29214;SDS011;16252;49.816;7.964;2022-10-16T03:52:55;1.90;;;1.30;;
29214;SDS011;16252;49.816;7.964;2022-10-16T03:55:20;3.13;;;1.38;;
29214;SDS011;16252;49.816;7.964;2022-10-16T03:57:45;1.98;;;1.30;;
29214;SDS011;16252;49.816;7.964;2022-10-16T04:00:11;2.13;;;1.38;;
29214;SDS011;16252;49.816;7.964;2022-10-16T04:02:37;2.60;;;1.50;;
29214;SDS011;16252;49.816;7.964;2022-10-16T04:05:02;1.17;;;0.90;;
29214;SDS011;16252;49.816;7.964;2022-10-16T04:07:28;1.02;;;0.68;;
29214;SDS011;16252;49.816;7.964;2022-10-16T04:09:56;0.57;;;0.57;;
29214;SDS011;16252;49.816;7.964;2022-10-16T04:12:24;0.65;;;0.65;;
29214;SDS011;16252;49.816;7.964;2022-10-16T04:14:50;1.55;;;0.90;;
29214;SDS011;16252;49.816;7.964;2022-10-16T04:17:16;2.78;;;1.10;;
29214;SDS011;16252;49.816;7.964;2022-10-16T04:19:41;2.03;;;1.05;;
29214;SDS011;16252;49.816;7.964;2022-10-16T04:22:07;1.95;;;0.90;;
29214;SDS011;16252;49.816;7.964;2022-10-16T04:24:32;1.65;;;1.08;;
29214;SDS011;16252;49.816;7.964;2022-10-16T04:26:57;0.95;;;0.88;;
29214;SDS011;16252;49.816;7.964;2022-10-16T04:29:23;1.10;;;1.00;;
29214;SDS011;16252;49.816;7.964;2022-10-16T04:31:48;1.10;;;0.98;;
29214;SDS011;16252;49.816;7.964;2022-10-16T04:34:13;0.90;;;0.90;;
29214;SDS011;16252;49.816;7.964;2022-10-16T04:36:39;1.00;;;0.90;;
29214;SDS011;16252;49.816;7.964;2022-10-16T04:39:04;1.17;;;1.08;;
29214;SDS011;16252;49.816;7.964;2022-10-16T04:41:29;3.13;;;1.08;;
29214;SDS011;16252;49.816;7.964;2022-10-16T04:43:55;1.83;;;1.05;;
29214;SDS011;16252;49.816;7.964;2022-10-16T04:46:20;3.25;;;1.88;;
29214;SDS011;16252;49.816;7.964;2022-10-16T04:48:46;2.15;;;1.58;;
29214;SDS011;16252;49.816;7.964;2022-10-16T04:51:11;1.92;;;1.38;;
29214;SDS011;16252;49.816;7.964;2022-10-16T04:53:37;1.65;;;1.30;;
29214;SDS011;16252;49.816;7.964;2022-10-16T04:56:02;1.90;;;1.30;;
29214;SDS011;16252;49.816;7.964;2022-10-16T04:58:28;2.33;;;1.30;;
29214;SDS011;16252;49.816;7.964;2022-10-16T05:00:53;2.17;;;1.70;;
29214;SDS011;16252;49.816;7.964;2022-10-16T05:03:18;2.60;;;1.60;;
29214;SDS011;16252;49.816;7.964;2022-10-16T05:05:44;5.78;;;1.92;;
29214;SDS011;16252;49.816;7.964;2022-10-16T05:08:14;2.28;;;1.80;;
29214;SDS011;16252;49.816;7.964;2022-10-16T05:10:43;3.15;;;2.40;;
29214;SDS011;16252;49.816;7.964;2022-10-16T05:13:10;3.92;;;2.70;;
29214;SDS011;16252;49.816;7.964;2022-10-16T05:15:36;4.82;;;3.08;;
29214;SDS011;16252;49.816;7.964;2022-10-16T05:18:02;5.00;;;2.63;;
29214;SDS011;16252;49.816;7.964;2022-10-16T05:20:27;2.78;;;2.20;;
29214;SDS011;16252;49.816;7.964;2022-10-16T05:22:53;3.33;;;2.50;;
29214;SDS011;16252;49.816;7.964;2022-10-16T05:25:20;2.08;;;1.88;;
29214;SDS011;16252;49.816;7.964;2022-10-16T05:27:49;7.05;;;3.20;;
29214;SDS011;16252;49.816;7.964;2022-10-16T05:30:14;3.00;;;2.60;;
29214;SDS011;16252;49.816;7.964;2022-10-16T05:32:41;3.45;;;2.72;;
29214;SDS011;16252;49.816;7.964;2022-10-16T05:35:06;3.40;;;2.53;;
29214;SDS011;16252;49.816;7.964;2022-10-16T05:37:32;3.17;;;2.38;;
29214;SDS011;16252;49.816;7.964;2022-10-16T05:39:57;2.92;;;2.03;;
29214;SDS011;16252;49.816;7.964;2022-10-16T05:42:23;2.70;;;2.15;;
29214;SDS011;16252;49.816;7.964;2022-10-16T05:44:49;3.63;;;2.30;;
29214;SDS011;16252;49.816;7.964;2022-10-16T05:47:14;2.80;;;2.10;;
29214;SDS011;16252;49.816;7.964;2022-10-16T05:49:40;2.10;;;1.70;;
29214;SDS011;16252;49.816;7.964;2022-10-16T05:52:05;2.88;;;2.10;;
29214;SDS011;16252;49.816;7.964;2022-10-16T05:54:31;1.73;;;1.48;;
29214;SDS011;16252;49.816;7.964;2022-10-16T05:56:56;2.85;;;1.60;;
29214;SDS011;16252;49.816;7.964;2022-10-16T05:59:21;1.77;;;1.35;;
29214;SDS011;16252;49.816;7.964;2022-10-16T06:01:47;1.17;;;1.08;;
29214;SDS011;16252;49.816;7.964;2022-10-16T06:04:12;1.30;;;1.20;;
29214;SDS011;16252;49.816;7.964;2022-10-16T06:06:52;2.03;;;1.55;;
29214;SDS011;16252;49.816;7.964;2022-10-16T06:09:18;2.05;;;1.50;;
29214;SDS011;16252;49.816;7.964;2022-10-16T06:11:48;2.50;;;1.40;;
29214;SDS011;16252;49.816;7.964;2022-10-16T06:14:23;1.55;;;1.30;;
29214;SDS011;16252;49.816;7.964;2022-10-16T06:16:57;1.35;;;1.25;;
29214;SDS011;16252;49.816;7.964;2022-10-16T06:19:25;4.53;;;1.20;;
29214;SDS011;16252;49.816;7.964;2022-10-16T06:21:56;1.63;;;1.30;;
29214;SDS011;16252;49.816;7.964;2022-10-16T06:24:25;1.75;;;1.60;;
29214;SDS011;16252;49.816;7.964;2022-10-16T06:26:53;2.20;;;1.63;;
29214;SDS011;16252;49.816;7.964;2022-10-16T06:29:29;3.10;;;1.70;;
29214;SDS011;16252;49.816;7.964;2022-10-16T06:32:00;1.13;;;1.02;;
29214;SDS011;16252;49.816;7.964;2022-10-16T06:34:31;1.58;;;1.17;;
29214;SDS011;16252;49.816;7.964;2022-10-16T06:36:59;3.63;;;1.13;;
29214;SDS011;16252;49.816;7.964;2022-10-16T06:39:28;1.73;;;1.30;;
29214;SDS011;16252;49.816;7.964;2022-10-16T06:42:07;1.35;;;1.20;;
29214;SDS011;16252;49.816;7.964;2022-10-16T06:44:41;1.48;;;1.30;;
29214;SDS011;16252;49.816;7.964;2022-10-16T06:47:07;1.38;;;1.25;;
29214;SDS011;16252;49.816;7.964;2022-10-16T06:49:32;2.00;;;1.75;;
29214;SDS011;16252;49.816;7.964;2022-10-16T06:51:58;1.95;;;1.80;;
29214;SDS011;16252;49.816;7.964;2022-10-16T06:54:24;3.47;;;2.45;;
29214;SDS011;16252;49.816;7.964;2022-10-16T06:56:50;3.97;;;2.55;;
29214;SDS011;16252;49.816;7.964;2022-10-16T06:59:16;6.55;;;2.75;;
29214;SDS011;16252;49.816;7.964;2022-10-16T07:01:43;6.25;;;3.28;;
29214;SDS011;16252;49.816;7.964;2022-10-16T07:04:11;3.80;;;2.70;;
29214;SDS011;16252;49.816;7.964;2022-10-16T07:06:39;5.57;;;4.45;;
29214;SDS011;16252;49.816;7.964;2022-10-16T07:09:09;5.25;;;4.22;;
29214;SDS011;16252;49.816;7.964;2022-10-16T07:11:39;4.47;;;3.97;;
29214;SDS011;16252;49.816;7.964;2022-10-16T07:14:09;4.47;;;3.90;;
29214;SDS011;16252;49.816;7.964;2022-10-16T07:16:40;3.92;;;3.13;;
29214;SDS011;16252;49.816;7.964;2022-10-16T07:19:06;3.15;;;2.67;;
29214;SDS011;16252;49.816;7.964;2022-10-16T07:21:33;5.10;;;3.95;;
29214;SDS011;16252;49.816;7.964;2022-10-16T07:24:02;8.18;;;6.70;;
29214;SDS011;16252;49.816;7.964;2022-10-16T07:26:33;7.03;;;4.97;;
29214;SDS011;16252;49.816;7.964;2022-10-16T07:29:04;7.32;;;5.25;;
29214;SDS011;16252;49.816;7.964;2022-10-16T07:31:49;7.30;;;5.63;;
29214;SDS011;16252;49.816;7.964;2022-10-16T07:34:27;7.68;;;4.45;;
29214;SDS011;16252;49.816;7.964;2022-10-16T07:36:56;4.65;;;3.92;;
29214;SDS011;16252;49.816;7.964;2022-10-16T07:39:28;6.50;;;4.93;;
29214;SDS011;16252;49.816;7.964;2022-10-16T07:42:04;5.45;;;4.53;;
29214;SDS011;16252;49.816;7.964;2022-10-16T07:44:32;6.95;;;5.63;;
29214;SDS011;16252;49.816;7.964;2022-10-16T07:46:58;4.03;;;3.47;;
29214;SDS011;16252;49.816;7.964;2022-10-16T07:49:24;3.10;;;2.63;;
29214;SDS011;16252;49.816;7.964;2022-10-16T07:51:53;2.63;;;2.38;;
29214;SDS011;16252;49.816;7.964;2022-10-16T07:54:23;3.33;;;2.35;;
29214;SDS011;16252;49.816;7.964;2022-10-16T07:56:49;3.10;;;2.42;;
29214;SDS011;16252;49.816;7.964;2022-10-16T07:59:17;2.60;;;2.40;;
29214;SDS011;16252;49.816;7.964;2022-10-16T08:01:46;3.22;;;2.40;;
29214;SDS011;16252;49.816;7.964;2022-10-16T08:04:15;2.90;;;2.63;;
29214;SDS011;16252;49.816;7.964;2022-10-16T08:06:41;3.35;;;2.15;;
29214;SDS011;16252;49.816;7.964;2022-10-16T08:09:09;2.60;;;1.90;;
29214;SDS011;16252;49.816;7.964;2022-10-16T08:11:35;3.65;;;1.85;;
29214;SDS011;16252;49.816;7.964;2022-10-16T08:14:00;2.47;;;2.17;;
29214;SDS011;16252;49.816;7.964;2022-10-16T08:16:29;6.10;;;2.45;;
29214;SDS011;16252;49.816;7.964;2022-10-16T08:18:55;4.38;;;2.15;;
29214;SDS011;16252;49.816;7.964;2022-10-16T08:21:23;2.90;;;2.22;;
29214;SDS011;16252;49.816;7.964;2022-10-16T08:23:50;2.85;;;2.28;;
29214;SDS011;16252;49.816;7.964;2022-10-16T08:26:16;1.92;;;1.70;;
29214;SDS011;16252;49.816;7.964;2022-10-16T08:28:44;3.17;;;1.40;;
29214;SDS011;16252;49.816;7.964;2022-10-16T08:31:18;1.80;;;1.20;;
29214;SDS011;16252;49.816;7.964;2022-10-16T08:33:44;1.25;;;1.10;;
29214;SDS011;16252;49.816;7.964;2022-10-16T08:36:13;2.73;;;1.63;;
29214;SDS011;16252;49.816;7.964;2022-10-16T08:38:42;1.52;;;1.08;;
29214;SDS011;16252;49.816;7.964;2022-10-16T08:47:21;2.20;;;1.40;;
29214;SDS011;16252;49.816;7.964;2022-10-16T08:49:57;1.85;;;1.35;;
29214;SDS011;16252;49.816;7.964;2022-10-16T08:52:41;1.67;;;1.42;;
29214;SDS011;16252;49.816;7.964;2022-10-16T08:55:16;1.50;;;1.40;;
29214;SDS011;16252;49.816;7.964;2022-10-16T08:57:45;1.33;;;1.20;;
29214;SDS011;16252;49.816;7.964;2022-10-16T09:00:12;2.30;;;1.45;;
29214;SDS011;16252;49.816;7.964;2022-10-16T09:02:59;1.30;;;1.20;;
29214;SDS011;16252;49.816;7.964;2022-10-16T09:10:59;1.70;;;1.00;;
29214;SDS011;16252;49.816;7.964;2022-10-16T09:16:22;2.10;;;1.10;;
29214;SDS011;16252;49.816;7.964;2022-10-16T09:21:46;2.38;;;1.17;;
29214;SDS011;16252;49.816;7.964;2022-10-16T09:24:17;1.20;;;1.05;;
29214;SDS011;16252;49.816;7.964;2022-10-16T09:26:45;1.48;;;1.10;;
29214;SDS011;16252;49.816;7.964;2022-10-16T09:31:39;1.50;;;1.40;;
29214;SDS011;16252;49.816;7.964;2022-10-16T09:34:06;1.33;;;1.10;;
29214;SDS011;16252;49.816;7.964;2022-10-16T09:36:40;2.35;;;2.08;;
29214;SDS011;16252;49.816;7.964;2022-10-16T09:39:10;2.20;;;1.75;;
29214;SDS011;16252;49.816;7.964;2022-10-16T09:41:41;2.63;;;1.52;;
29214;SDS011;16252;49.816;7.964;2022-10-16T09:44:17;2.92;;;1.70;;
29214;SDS011;16252;49.816;7.964;2022-10-16T09:46:47;1.80;;;1.27;;
29214;SDS011;16252;49.816;7.964;2022-10-16T09:49:25;1.25;;;1.00;;
29214;SDS011;16252;49.816;7.964;2022-10-16T09:52:02;1.10;;;1.00;;
29214;SDS011;16252;49.816;7.964;2022-10-16T09:54:36;1.38;;;1.17;;
29214;SDS011;16252;49.816;7.964;2022-10-16T09:57:05;1.38;;;1.13;;
29214;SDS011;16252;49.816;7.964;2022-10-16T09:59:31;2.35;;;1.00;;
29214;SDS011;16252;49.816;7.964;2022-10-16T10:01:58;2.13;;;1.13;;
29214;SDS011;16252;49.816;7.964;2022-10-16T10:04:36;1.65;;;1.10;;
29214;SDS011;16252;49.816;7.964;2022-10-16T10:07:04;0.85;;;0.85;;
29214;SDS011;16252;49.816;7.964;2022-10-16T10:12:05;1.20;;;1.10;;
29214;SDS011;16252;49.816;7.964;2022-10-16T10:14:43;0.80;;;0.80;;
29214;SDS011;16252;49.816;7.964;2022-10-16T10:17:13;1.10;;;1.00;;
29214;SDS011;16252;49.816;7.964;2022-10-16T10:22:23;1.20;;;0.75;;
29214;SDS011;16252;49.816;7.964;2022-10-16T10:24:55;1.73;;;0.88;;
29214;SDS011;16252;49.816;7.964;2022-10-16T10:27:24;1.10;;;1.00;;
29214;SDS011;16252;49.816;7.964;2022-10-16T10:30:01;1.13;;;0.80;;
29214;SDS011;16252;49.816;7.964;2022-10-16T10:32:49;0.77;;;0.77;;
29214;SDS011;16252;49.816;7.964;2022-10-16T10:35:53;1.27;;;0.80;;
29214;SDS011;16252;49.816;7.964;2022-10-16T10:38:20;0.70;;;0.70;;
29214;SDS011;16252;49.816;7.964;2022-10-16T10:43:40;1.02;;;0.80;;
29214;SDS011;16252;49.816;7.964;2022-10-16T10:46:24;1.05;;;0.80;;
29214;SDS011;16252;49.816;7.964;2022-10-16T10:54:46;3.17;;;1.40;;
29214;SDS011;16252;49.816;7.964;2022-10-16T10:57:22;1.55;;;1.13;;
29214;SDS011;16252;49.816;7.964;2022-10-16T11:05:46;1.20;;;0.98;;
29214;SDS011;16252;49.816;7.964;2022-10-16T11:08:20;2.25;;;0.80;;
29214;SDS011;16252;49.816;7.964;2022-10-16T11:14:00;0.70;;;0.70;;
29214;SDS011;16252;49.816;7.964;2022-10-16T11:16:43;0.80;;;0.80;;
29214;SDS011;16252;49.816;7.964;2022-10-16T11:19:21;1.27;;;0.82;;
29214;SDS011;16252;49.816;7.964;2022-10-16T11:21:56;0.73;;;0.70;;
29214;SDS011;16252;49.816;7.964;2022-10-16T11:27:19;0.93;;;0.88;;
29214;SDS011;16252;49.816;7.964;2022-10-16T11:29:52;0.73;;;0.63;;
29214;SDS011;16252;49.816;7.964;2022-10-16T11:32:31;2.58;;;1.15;;
29214;SDS011;16252;49.816;7.964;2022-10-16T11:35:15;3.40;;;1.35;;
29214;SDS011;16252;49.816;7.964;2022-10-16T11:37:47;1.33;;;0.90;;
29214;SDS011;16252;49.816;7.964;2022-10-16T11:40:36;1.27;;;0.85;;
29214;SDS011;16252;49.816;7.964;2022-10-16T11:43:17;0.70;;;0.70;;
29214;SDS011;16252;49.816;7.964;2022-10-16T11:45:55;0.90;;;0.85;;
29214;SDS011;16252;49.816;7.964;2022-10-16T11:48:35;1.00;;;0.90;;
29214;SDS011;16252;49.816;7.964;2022-10-16T11:51:25;1.30;;;0.80;;
29214;SDS011;16252;49.816;7.964;2022-10-16T11:53:59;1.10;;;1.00;;
29214;SDS011;16252;49.816;7.964;2022-10-16T11:56:25;3.30;;;1.10;;
29214;SDS011;16252;49.816;7.964;2022-10-16T12:04:38;2.22;;;1.15;;
29214;SDS011;16252;49.816;7.964;2022-10-16T12:07:11;1.05;;;0.90;;
29214;SDS011;16252;49.816;7.964;2022-10-16T12:09:41;1.98;;;1.20;;
29214;SDS011;16252;49.816;7.964;2022-10-16T12:12:26;1.25;;;0.90;;
29214;SDS011;16252;49.816;7.964;2022-10-16T12:15:23;1.15;;;1.05;;
29214;SDS011;16252;49.816;7.964;2022-10-16T12:17:50;1.42;;;1.10;;
29214;SDS011;16252;49.816;7.964;2022-10-16T12:22:51;1.80;;;1.30;;
29214;SDS011;16252;49.816;7.964;2022-10-16T12:26:02;1.27;;;1.17;;
29214;SDS011;16252;49.816;7.964;2022-10-16T12:28:19;1.30;;;1.20;;
29214;SDS011;16252;49.816;7.964;2022-10-16T12:30:54;2.10;;;1.40;;
29214;SDS011;16252;49.816;7.964;2022-10-16T12:33:28;1.33;;;1.10;;
29214;SDS011;16252;49.816;7.964;2022-10-16T12:35:55;1.60;;;1.40;;
29214;SDS011;16252;49.816;7.964;2022-10-16T12:38:27;2.47;;;1.48;;
29214;SDS011;16252;49.816;7.964;2022-10-16T12:40:58;2.50;;;1.40;;
29214;SDS011;16252;49.816;7.964;2022-10-16T12:43:27;1.55;;;1.40;;
29214;SDS011;16252;49.816;7.964;2022-10-16T12:46:21;1.30;;;1.20;;
29214;SDS011;16252;49.816;7.964;2022-10-16T12:48:49;2.08;;;1.30;;
29214;SDS011;16252;49.816;7.964;2022-10-16T12:54:03;2.38;;;1.38;;
29214;SDS011;16252;49.816;7.964;2022-10-16T12:59:39;2.80;;;1.30;;
29214;SDS011;16252;49.816;7.964;2022-10-16T13:02:19;2.80;;;1.50;;
29214;SDS011;16252;49.816;7.964;2022-10-16T13:10:17;1.88;;;1.38;;
29214;SDS011;16252;49.816;7.964;2022-10-16T13:12:58;1.40;;;1.30;;
29214;SDS011;16252;49.816;7.964;2022-10-16T13:18:16;2.58;;;1.90;;
29214;SDS011;16252;49.816;7.964;2022-10-16T13:20:55;1.80;;;1.60;;
29214;SDS011;16252;49.816;7.964;2022-10-16T13:23:24;2.00;;;1.55;;
29214;SDS011;16252;49.816;7.964;2022-10-16T13:26:14;4.20;;;1.50;;
29214;SDS011;16252;49.816;7.964;2022-10-16T13:28:48;1.70;;;1.60;;
29214;SDS011;16252;49.816;7.964;2022-10-16T13:31:15;1.92;;;1.67;;
29214;SDS011;16252;49.816;7.964;2022-10-16T13:33:49;2.17;;;1.30;;
29214;SDS011;16252;49.816;7.964;2022-10-16T13:37:02;1.92;;;1.38;;
29214;SDS011;16252;49.816;7.964;2022-10-16T13:39:19;1.38;;;1.27;;
29214;SDS011;16252;49.816;7.964;2022-10-16T13:44:25;1.60;;;1.50;;
29214;SDS011;16252;49.816;7.964;2022-10-16T13:46:58;1.73;;;1.55;;
29214;SDS011;16252;49.816;7.964;2022-10-16T13:49:25;1.98;;;1.38;;
29214;SDS011;16252;49.816;7.964;2022-10-16T13:51:54;1.42;;;1.33;;
29214;SDS011;16252;49.816;7.964;2022-10-16T13:54:21;2.92;;;1.73;;
29214;SDS011;16252;49.816;7.964;2022-10-16T13:56:46;1.42;;;1.33;;
29214;SDS011;16252;49.816;7.964;2022-10-16T13:59:22;2.53;;;1.60;;
29214;SDS011;16252;49.816;7.964;2022-10-16T14:01:48;2.00;;;1.58;;
29214;SDS011;16252;49.816;7.964;2022-10-16T14:04:16;1.50;;;1.40;;
29214;SDS011;16252;49.816;7.964;2022-10-16T14:06:42;2.90;;;1.65;;
29214;SDS011;16252;49.816;7.964;2022-10-16T14:09:47;2.22;;;1.90;;
29214;SDS011;16252;49.816;7.964;2022-10-16T14:12:06;3.20;;;1.80;;
29214;SDS011;16252;49.816;7.964;2022-10-16T14:14:57;1.70;;;1.60;;
29214;SDS011;16252;49.816;7.964;2022-10-16T14:19:50;1.65;;;1.50;;
29214;SDS011;16252;49.816;7.964;2022-10-16T14:24:57;2.35;;;1.85;;
29214;SDS011;16252;49.816;7.964;2022-10-16T14:27:24;2.85;;;1.75;;
29214;SDS011;16252;49.816;7.964;2022-10-16T14:30:01;2.53;;;1.80;;
29214;SDS011;16252;49.816;7.964;2022-10-16T14:32:53;1.92;;;1.67;;
29214;SDS011;16252;49.816;7.964;2022-10-16T14:35:23;2.03;;;1.70;;
29214;SDS011;16252;49.816;7.964;2022-10-16T14:37:54;1.75;;;1.52;;
29214;SDS011;16252;49.816;7.964;2022-10-16T14:40:26;3.00;;;1.65;;
29214;SDS011;16252;49.816;7.964;2022-10-16T14:42:53;2.88;;;1.92;;
29214;SDS011;16252;49.816;7.964;2022-10-16T14:45:24;4.60;;;2.67;;
29214;SDS011;16252;49.816;7.964;2022-10-16T14:47:54;2.70;;;1.95;;
29214;SDS011;16252;49.816;7.964;2022-10-16T14:50:38;3.88;;;2.08;;
29214;SDS011;16252;49.816;7.964;2022-10-16T14:53:08;2.00;;;1.80;;
29214;SDS011;16252;49.816;7.964;2022-10-16T14:55:36;2.35;;;1.50;;
29214;SDS011;16252;49.816;7.964;2022-10-16T14:58:02;3.45;;;1.70;;
29214;SDS011;16252;49.816;7.964;2022-10-16T15:00:27;3.70;;;1.40;;
29214;SDS011;16252;49.816;7.964;2022-10-16T15:02:52;1.70;;;1.60;;
29214;SDS011;16252;49.816;7.964;2022-10-16T15:05:22;2.25;;;1.80;;
29214;SDS011;16252;49.816;7.964;2022-10-16T15:07:51;2.08;;;1.60;;
29214;SDS011;16252;49.816;7.964;2022-10-16T15:10:21;2.35;;;1.75;;
29214;SDS011;16252;49.816;7.964;2022-10-16T15:12:48;1.63;;;1.52;;
29214;SDS011;16252;49.816;7.964;2022-10-16T15:17:47;3.22;;;1.48;;
29214;SDS011;16252;49.816;7.964;2022-10-16T15:20:13;1.75;;;1.40;;
29214;SDS011;16252;49.816;7.964;2022-10-16T15:22:38;3.17;;;1.30;;
29214;SDS011;16252;49.816;7.964;2022-10-16T15:25:10;1.45;;;1.30;;
29214;SDS011;16252;49.816;7.964;2022-10-16T15:27:52;1.80;;;1.35;;
29214;SDS011;16252;49.816;7.964;2022-10-16T15:30:35;1.10;;;1.00;;
29214;SDS011;16252;49.816;7.964;2022-10-16T15:33:16;2.25;;;1.50;;
29214;SDS011;16252;49.816;7.964;2022-10-16T15:36:05;1.70;;;1.60;;
29214;SDS011;16252;49.816;7.964;2022-10-16T15:38:36;3.50;;;1.63;;
29214;SDS011;16252;49.816;7.964;2022-10-16T15:41:01;2.50;;;1.80;;
29214;SDS011;16252;49.816;7.964;2022-10-16T15:43:30;1.42;;;1.33;;
29214;SDS011;16252;49.816;7.964;2022-10-16T15:46:00;2.03;;;1.80;;
29214;SDS011;16252;49.816;7.964;2022-10-16T15:48:28;1.70;;;1.60;;
29214;SDS011;16252;49.816;7.964;2022-10-16T15:50:54;2.17;;;1.60;;
29214;SDS011;16252;49.816;7.964;2022-10-16T15:53:20;2.78;;;2.33;;
29214;SDS011;16252;49.816;7.964;2022-10-16T15:55:45;4.40;;;2.42;;
29214;SDS011;16252;49.816;7.964;2022-10-16T15:58:10;2.80;;;2.05;;
29214;SDS011;16252;49.816;7.964;2022-10-16T16:00:36;1.88;;;1.77;;
29214;SDS011;16252;49.816;7.964;2022-10-16T16:03:01;4.13;;;2.30;;
29214;SDS011;16252;49.816;7.964;2022-10-16T16:05:26;2.45;;;2.03;;
29214;SDS011;16252;49.816;7.964;2022-10-16T16:07:52;2.25;;;1.90;;
29214;SDS011;16252;49.816;7.964;2022-10-16T16:10:18;1.83;;;1.65;;
29214;SDS011;16252;49.816;7.964;2022-10-16T16:12:46;1.95;;;1.55;;
29214;SDS011;16252;49.816;7.964;2022-10-16T16:15:16;2.13;;;1.45;;
29214;SDS011;16252;49.816;7.964;2022-10-16T16:17:42;3.30;;;1.73;;
29214;SDS011;16252;49.816;7.964;2022-10-16T16:20:09;4.30;;;1.67;;
29214;SDS011;16252;49.816;7.964;2022-10-16T16:22:35;1.92;;;1.80;;
29214;SDS011;16252;49.816;7.964;2022-10-16T16:25:00;2.92;;;2.22;;
29214;SDS011;16252;49.816;7.964;2022-10-16T16:27:25;4.03;;;2.70;;
29214;SDS011;16252;49.816;7.964;2022-10-16T16:29:51;2.53;;;2.33;;
29214;SDS011;16252;49.816;7.964;2022-10-16T16:32:16;3.88;;;1.92;;
29214;SDS011;16252;49.816;7.964;2022-10-16T16:34:41;5.55;;;3.13;;
29214;SDS011;16252;49.816;7.964;2022-10-16T16:37:06;4.57;;;3.05;;
29214;SDS011;16252;49.816;7.964;2022-10-16T16:39:32;5.35;;;2.90;;
29214;SDS011;16252;49.816;7.964;2022-10-16T16:41:57;2.22;;;2.00;;
29214;SDS011;16252;49.816;7.964;2022-10-16T16:44:27;2.97;;;2.00;;
29214;SDS011;16252;49.816;7.964;2022-10-16T16:46:53;2.95;;;2.20;;
29214;SDS011;16252;49.816;7.964;2022-10-16T16:49:19;2.45;;;2.20;;